createdAt,value
2023-03-07T00:01:31.006Z,1.93
2023-03-07T00:03:58.219Z,1.96
2023-03-07T00:06:25.409Z,1.97
2023-03-07T00:08:53.063Z,2.02
2023-03-07T00:11:19.803Z,2.02
2023-03-07T00:13:46.276Z,2.03
2023-03-07T00:16:18.337Z,2.07
2023-03-07T00:18:44.804Z,2.08
2023-03-07T00:21:13.627Z,2.08
2023-03-07T00:23:41.656Z,2.12
2023-03-07T00:26:12.781Z,2.12
2023-03-07T00:28:39.294Z,2.15
2023-03-07T00:31:08.300Z,2.17
2023-03-07T00:33:35.064Z,2.18
2023-03-07T00:36:04.313Z,2.22
2023-03-07T00:38:31.688Z,2.25
2023-03-07T00:41:09.137Z,2.26
2023-03-07T00:43:35.961Z,2.28
2023-03-07T00:46:03.148Z,2.30
2023-03-07T00:48:29.960Z,2.33
2023-03-07T00:50:56.731Z,2.35
2023-03-07T00:53:25.027Z,2.37
2023-03-07T00:56:05.621Z,2.38
2023-03-07T00:58:34.409Z,2.40
2023-03-07T01:01:01.631Z,2.42
2023-03-07T01:03:28.522Z,2.44
2023-03-07T01:05:55.705Z,2.45
2023-03-07T01:08:22.585Z,2.46
2023-03-07T01:10:49.070Z,2.49
2023-03-07T01:13:16.961Z,2.51
2023-03-07T01:15:43.412Z,2.55
2023-03-07T01:18:10.743Z,2.57
2023-03-07T01:20:38.506Z,2.60
2023-03-07T01:23:05.466Z,2.62
2023-03-07T01:25:32.100Z,2.64
2023-03-07T01:27:58.528Z,2.67
2023-03-07T01:30:25.658Z,2.71
2023-03-07T01:32:56.449Z,2.75
2023-03-07T01:35:23.543Z,2.77
2023-03-07T01:37:51.112Z,2.78
2023-03-07T01:40:18.347Z,2.79
2023-03-07T01:42:44.947Z,2.82
2023-03-07T01:45:14.271Z,2.84
2023-03-07T01:47:43.461Z,2.87
2023-03-07T01:50:16.801Z,2.88
2023-03-07T01:52:46.293Z,2.89
2023-03-07T01:55:18.901Z,2.93
2023-03-07T01:57:47.274Z,2.95
2023-03-07T02:00:23.400Z,2.96
2023-03-07T02:02:55.703Z,2.95
2023-03-07T02:05:26.439Z,2.98
2023-03-07T02:07:54.065Z,3.00
2023-03-07T02:10:22.086Z,2.98
2023-03-07T02:12:49.075Z,3.02
2023-03-07T02:15:15.587Z,3.01
2023-03-07T02:17:42.857Z,3.03
2023-03-07T02:20:13.020Z,3.06
2023-03-07T02:22:40.830Z,3.08
2023-03-07T02:25:19.365Z,3.09
2023-03-07T02:27:46.013Z,3.09
2023-03-07T02:30:12.666Z,3.10
2023-03-07T02:32:39.168Z,3.12
2023-03-07T02:35:13.229Z,3.12
2023-03-07T02:37:40.066Z,3.13
2023-03-07T02:40:08.454Z,3.15
2023-03-07T02:42:38.060Z,3.12
2023-03-07T02:45:06.779Z,3.14
2023-03-07T02:47:33.200Z,3.18
2023-03-07T02:49:59.701Z,3.18
2023-03-07T02:52:28.551Z,3.17
2023-03-07T02:54:55.582Z,3.19
2023-03-07T02:57:22.267Z,3.18
2023-03-07T02:59:48.664Z,3.20
2023-03-07T03:02:15.110Z,3.20
2023-03-07T03:04:41.685Z,3.20
2023-03-07T03:07:08.157Z,3.22
2023-03-07T03:09:34.579Z,3.22
2023-03-07T03:12:01.010Z,3.20
2023-03-07T03:14:27.455Z,3.19
2023-03-07T03:16:54.416Z,3.20
2023-03-07T03:19:20.824Z,3.19
2023-03-07T03:21:47.899Z,3.22
2023-03-07T03:24:14.369Z,3.19
2023-03-07T03:26:40.775Z,3.17
2023-03-07T03:29:07.196Z,3.18
2023-03-07T03:31:34.905Z,3.17
2023-03-07T03:34:01.389Z,3.13
2023-03-07T03:36:28.290Z,3.13
2023-03-07T03:38:56.287Z,3.13
2023-03-07T03:41:23.330Z,3.12
2023-03-07T03:43:49.828Z,3.10
2023-03-07T03:46:17.590Z,3.11
2023-03-07T03:48:44.447Z,3.11
2023-03-07T03:51:14.569Z,3.10
2023-03-07T03:53:41.103Z,3.11
2023-03-07T03:56:11.713Z,3.11
2023-03-07T03:58:38.527Z,3.09
2023-03-07T04:01:07.638Z,3.07
2023-03-07T04:03:35.465Z,3.09
2023-03-07T04:06:07.777Z,3.13
2023-03-07T04:08:35.046Z,3.14
2023-03-07T04:11:01.534Z,3.12
2023-03-07T04:13:28.025Z,3.12
2023-03-07T04:15:54.588Z,3.13
2023-03-07T04:18:22.605Z,3.16
2023-03-07T04:20:50.403Z,3.14
2023-03-07T04:23:17.883Z,3.14
2023-03-07T04:25:52.477Z,3.13
2023-03-07T04:28:19.240Z,3.13
2023-03-07T04:30:45.822Z,3.15
2023-03-07T04:33:12.843Z,3.18
2023-03-07T04:35:39.807Z,3.24
2023-03-07T04:38:07.091Z,3.24
2023-03-07T04:40:34.269Z,3.25
2023-03-07T04:43:00.998Z,3.22
2023-03-07T04:45:27.570Z,3.24
2023-03-07T04:47:53.996Z,3.23
2023-03-07T04:50:20.592Z,3.23
2023-03-07T04:52:47.023Z,3.26
2023-03-07T04:55:13.416Z,3.27
2023-03-07T04:57:39.861Z,3.27
2023-03-07T05:00:10.081Z,3.27
2023-03-07T05:02:37.439Z,3.31
2023-03-07T05:05:04.283Z,3.34
2023-03-07T05:07:31.128Z,3.35
2023-03-07T05:09:57.576Z,3.40
2023-03-07T05:12:24.908Z,3.43
2023-03-07T05:14:51.320Z,3.42
2023-03-07T05:17:19.216Z,3.45
2023-03-07T05:19:45.635Z,3.48
2023-03-07T05:22:12.084Z,3.47
2023-03-07T05:24:38.489Z,3.50
2023-03-07T05:27:05.098Z,3.51
2023-03-07T05:29:31.528Z,3.53
2023-03-07T05:31:58.863Z,3.51
2023-03-07T05:34:25.314Z,3.51
2023-03-07T05:36:51.711Z,3.48
2023-03-07T05:39:18.136Z,3.49
2023-03-07T05:41:44.543Z,3.48
2023-03-07T05:44:10.973Z,3.48
2023-03-07T05:46:37.429Z,3.48
2023-03-07T05:49:03.870Z,3.48
2023-03-07T05:51:30.284Z,3.49
2023-03-07T05:53:56.702Z,3.54
2023-03-07T05:56:23.121Z,3.56
2023-03-07T05:58:49.550Z,3.61
2023-03-07T06:01:15.948Z,3.66
2023-03-07T06:03:44.026Z,3.68
2023-03-07T06:06:12.206Z,3.67
2023-03-07T06:08:38.767Z,3.72
2023-03-07T06:11:05.319Z,3.74
2023-03-07T06:13:31.752Z,3.79
2023-03-07T06:15:58.245Z,3.83
2023-03-07T06:18:25.659Z,3.90
2023-03-07T06:21:13.488Z,4.04
2023-03-07T06:23:39.954Z,4.05
2023-03-07T06:26:08.054Z,4.05
2023-03-07T06:28:35.251Z,4.08
2023-03-07T06:31:01.784Z,4.10
2023-03-07T06:33:28.222Z,4.09
2023-03-07T06:35:54.797Z,4.11
2023-03-07T06:38:21.251Z,4.14
2023-03-07T06:40:55.475Z,4.15
2023-03-07T06:43:22.251Z,4.17
2023-03-07T06:45:48.763Z,4.19
2023-03-07T06:48:15.206Z,4.21
2023-03-07T06:50:41.606Z,4.22
2023-03-07T06:53:08.008Z,4.25
2023-03-07T06:55:34.483Z,4.27
2023-03-07T06:58:00.923Z,4.29
2023-03-07T07:00:27.433Z,4.37
2023-03-07T07:02:54.171Z,4.41
2023-03-07T07:05:20.750Z,4.46
2023-03-07T07:07:47.184Z,4.52
2023-03-07T07:10:13.617Z,4.57
2023-03-07T07:12:40.129Z,4.64
2023-03-07T07:15:07.322Z,4.69
2023-03-07T07:17:35.681Z,4.76
2023-03-07T07:20:05.284Z,4.79
2023-03-07T07:22:32.286Z,4.81
2023-03-07T07:24:58.729Z,4.83
2023-03-07T07:27:25.869Z,4.87
2023-03-07T07:29:52.300Z,4.88
2023-03-07T07:32:18.816Z,4.91
2023-03-07T07:34:45.344Z,4.94
2023-03-07T07:37:11.754Z,4.95
2023-03-07T07:39:40.734Z,4.99
2023-03-07T07:42:07.144Z,5.02
2023-03-07T07:44:33.584Z,5.05
2023-03-07T07:47:01.013Z,5.06
2023-03-07T07:49:27.497Z,5.11
2023-03-07T07:51:53.945Z,5.12
2023-03-07T07:54:20.362Z,5.14
2023-03-07T07:56:46.788Z,5.16
2023-03-07T07:59:13.305Z,5.11
2023-03-07T08:01:39.816Z,5.06
2023-03-07T08:04:06.277Z,5.08
2023-03-07T08:06:32.690Z,5.10
2023-03-07T08:09:00.149Z,5.13
2023-03-07T08:11:27.030Z,5.15
2023-03-07T08:13:53.484Z,5.19
2023-03-07T08:16:21.773Z,5.22
2023-03-07T08:18:50.320Z,5.26
2023-03-07T08:21:17.016Z,5.29
2023-03-07T08:23:43.491Z,5.31
2023-03-07T08:26:10.418Z,5.34
2023-03-07T08:28:37.550Z,5.36
2023-03-07T08:31:34.457Z,5.36
2023-03-07T08:34:01.980Z,5.38
2023-03-07T08:36:28.390Z,5.44
2023-03-07T08:38:54.821Z,5.48
2023-03-07T08:41:22.250Z,5.53
2023-03-07T08:43:48.837Z,5.56
2023-03-07T08:46:15.412Z,5.62
2023-03-07T08:48:41.855Z,5.67
2023-03-07T08:51:10.583Z,5.64
2023-03-07T08:53:37.429Z,5.67
2023-03-07T08:56:12.317Z,5.69
2023-03-07T08:58:38.991Z,5.73
2023-03-07T09:01:06.991Z,5.71
2023-03-07T09:03:34.190Z,5.76
2023-03-07T09:06:01.524Z,5.77
2023-03-07T09:08:27.923Z,5.84
2023-03-07T09:10:54.459Z,5.93
2023-03-07T09:13:20.898Z,6.00
2023-03-07T09:15:47.605Z,6.06
2023-03-07T09:18:14.032Z,6.13
2023-03-07T09:20:40.709Z,6.18
2023-03-07T09:23:08.130Z,6.17
2023-03-07T09:25:34.628Z,6.15
2023-03-07T09:28:01.044Z,6.20
2023-03-07T09:30:28.831Z,6.18
2023-03-07T09:32:55.818Z,6.14
2023-03-07T09:35:22.504Z,5.97
2023-03-07T09:37:49.026Z,6.00
2023-03-07T09:40:20.243Z,6.00
2023-03-07T09:42:55.740Z,5.94
2023-03-07T09:45:37.151Z,5.89
2023-03-07T09:48:20.929Z,5.86
2023-03-07T09:51:22.764Z,5.85
2023-03-07T09:53:58.094Z,5.83
2023-03-07T09:56:29.527Z,5.79
2023-03-07T09:59:22.075Z,5.78
2023-03-07T10:01:51.766Z,5.77
2023-03-07T10:04:23.097Z,5.75
2023-03-07T10:06:55.246Z,5.71
2023-03-07T10:09:23.536Z,5.68
2023-03-07T10:11:56.042Z,5.66
2023-03-07T10:14:31.569Z,5.68
2023-03-07T10:17:18.166Z,5.63
2023-03-07T10:19:49.056Z,5.55
2023-03-07T10:22:25.258Z,5.49
2023-03-07T10:25:00.914Z,5.35
2023-03-07T10:27:29.128Z,5.32
2023-03-07T10:29:58.506Z,5.26
2023-03-07T10:32:35.129Z,5.19
2023-03-07T10:35:20.845Z,5.12
2023-03-07T10:37:59.066Z,5.05
2023-03-07T10:40:34.840Z,4.98
2023-03-07T10:43:01.298Z,4.99
2023-03-07T10:45:30.724Z,5.04
2023-03-07T10:48:06.364Z,5.02
2023-03-07T10:50:43.832Z,5.01
2023-03-07T10:53:22.557Z,4.96
2023-03-07T10:55:48.967Z,4.99
2023-03-07T10:58:21.038Z,5.01
2023-03-07T11:01:18.463Z,5.08
2023-03-07T11:03:53.624Z,5.11
2023-03-07T11:06:51.448Z,5.14
2023-03-07T11:09:26.362Z,5.12
2023-03-07T11:11:58.487Z,5.11
2023-03-07T11:14:26.567Z,5.11
2023-03-07T11:16:59.950Z,5.14
2023-03-07T11:19:38.423Z,5.14
2023-03-07T11:22:17.683Z,5.12
2023-03-07T11:24:51.773Z,5.14
2023-03-07T11:27:26.808Z,5.19
2023-03-07T11:30:17.401Z,5.23
2023-03-07T11:33:03.252Z,5.24
2023-03-07T11:35:41.688Z,5.27
2023-03-07T11:38:19.928Z,5.25
2023-03-07T11:41:01.743Z,5.26
2023-03-07T11:43:44.950Z,5.25
2023-03-07T11:46:35.907Z,5.25
2023-03-07T11:49:20.708Z,5.25
2023-03-07T11:52:04.347Z,5.22
2023-03-07T11:54:42.747Z,5.26
2023-03-07T11:57:18.104Z,5.15
2023-03-07T11:59:56.147Z,5.11
2023-03-07T12:02:29.695Z,5.13
2023-03-07T12:05:37.033Z,5.08
2023-03-07T12:08:26.268Z,5.03
2023-03-07T12:11:23.702Z,4.93
2023-03-07T12:14:05.094Z,4.91
2023-03-07T12:16:55.769Z,4.92
2023-03-07T12:19:47.834Z,4.94
2023-03-07T12:22:28.439Z,4.97
2023-03-07T12:25:17.565Z,5.02
2023-03-07T12:27:57.740Z,4.99
2023-03-07T12:30:35.574Z,5.00
2023-03-07T12:33:02.902Z,5.09
2023-03-07T12:35:42.322Z,5.23
2023-03-07T12:38:23.316Z,5.30
2023-03-07T12:40:56.372Z,5.37
2023-03-07T12:43:39.599Z,5.39
2023-03-07T12:46:45.876Z,5.39
2023-03-07T12:49:22.089Z,5.29
2023-03-07T12:51:59.191Z,5.30
2023-03-07T12:54:37.371Z,5.29
2023-03-07T12:57:11.732Z,5.24
2023-03-07T12:59:40.837Z,5.21
2023-03-07T13:02:13.793Z,5.24
2023-03-07T13:04:42.664Z,5.25
2023-03-07T13:07:13.231Z,5.20
2023-03-07T13:09:42.067Z,5.16
2023-03-07T13:12:22.421Z,5.19
2023-03-07T13:14:53.093Z,5.21
2023-03-07T13:17:45.681Z,5.15
2023-03-07T13:20:14.944Z,5.18
2023-03-07T13:22:41.228Z,5.14
2023-03-07T13:25:19.588Z,5.14
2023-03-07T13:27:54.241Z,5.11
2023-03-07T13:30:28.925Z,5.14
2023-03-07T13:33:21.639Z,5.12
2023-03-07T13:35:57.001Z,5.11
2023-03-07T13:38:23.332Z,5.14
2023-03-07T13:40:58.856Z,5.16
2023-03-07T13:43:27.878Z,5.16
2023-03-07T13:46:20.005Z,5.13
2023-03-07T13:48:49.363Z,5.13
2023-03-07T13:51:15.960Z,5.17
2023-03-07T13:54:03.872Z,5.24
2023-03-07T13:56:42.464Z,5.28
2023-03-07T13:59:22.452Z,5.24
2023-03-07T14:01:57.834Z,5.23
2023-03-07T14:04:40.912Z,5.23
2023-03-07T14:07:24.963Z,5.22
2023-03-07T14:09:54.917Z,5.26
2023-03-07T14:12:44.566Z,5.29
2023-03-07T14:15:34.494Z,5.30
2023-03-07T14:18:29.469Z,5.27
2023-03-07T14:21:12.492Z,5.28
2023-03-07T14:23:52.872Z,5.30
2023-03-07T14:26:36.857Z,5.31
2023-03-07T14:29:20.532Z,5.31
2023-03-07T14:31:47.485Z,5.30
2023-03-07T14:34:33.658Z,5.24
2023-03-07T14:37:21.495Z,5.25
2023-03-07T14:40:00.025Z,5.26
2023-03-07T14:42:56.853Z,5.27
2023-03-07T14:45:40.693Z,5.28
2023-03-07T14:48:23.814Z,5.27
2023-03-07T14:50:50.648Z,5.32
2023-03-07T14:53:21.322Z,5.39
2023-03-07T14:55:49.289Z,5.39
2023-03-07T14:58:43.489Z,5.35
2023-03-07T15:01:15.972Z,5.29
2023-03-07T15:03:49.693Z,5.33
2023-03-07T15:06:18.924Z,5.36
2023-03-07T15:08:46.595Z,5.38
2023-03-07T15:11:29.786Z,5.40
2023-03-07T15:14:20.929Z,5.39
2023-03-07T15:16:50.705Z,5.39
2023-03-07T15:19:21.662Z,5.38
2023-03-07T15:21:54.344Z,5.35
2023-03-07T15:24:26.441Z,5.33
2023-03-07T15:26:55.360Z,5.28
2023-03-07T15:29:23.816Z,5.25
2023-03-07T15:32:08.316Z,5.26
2023-03-07T15:34:37.598Z,5.24
2023-03-07T15:37:23.001Z,5.22
2023-03-07T15:40:02.714Z,5.20
2023-03-07T15:42:30.012Z,5.18
2023-03-07T15:44:58.058Z,5.13
2023-03-07T15:47:25.211Z,5.10
2023-03-07T15:49:54.587Z,5.06
2023-03-07T15:52:37.004Z,5.01
2023-03-07T15:55:16.788Z,4.99
2023-03-07T15:58:01.380Z,4.97
2023-03-07T16:00:33.084Z,4.91
2023-03-07T16:03:28.589Z,4.88
2023-03-07T16:05:56.523Z,4.84
2023-03-07T16:08:23.406Z,4.82
2023-03-07T16:10:52.915Z,4.76
2023-03-07T16:13:22.215Z,4.73
2023-03-07T16:16:15.047Z,4.69
2023-03-07T16:18:42.374Z,4.65
2023-03-07T16:21:14.857Z,4.63
2023-03-07T16:23:41.462Z,4.59
2023-03-07T16:26:13.289Z,4.57
2023-03-07T16:28:39.823Z,4.56
2023-03-07T16:31:14.483Z,4.56
2023-03-07T16:33:40.991Z,4.55
2023-03-07T16:36:09.314Z,4.53
2023-03-07T16:38:35.755Z,4.51
2023-03-07T16:41:04.392Z,4.47
2023-03-07T16:43:36.625Z,4.42
2023-03-07T16:46:06.420Z,4.38
2023-03-07T16:48:33.189Z,4.37
2023-03-07T16:50:59.614Z,4.33
2023-03-07T16:53:26.648Z,4.29
2023-03-07T16:55:55.017Z,4.26
2023-03-07T16:58:27.928Z,4.23
2023-03-07T17:00:54.464Z,4.25
2023-03-07T17:03:20.904Z,4.22
2023-03-07T17:05:47.638Z,4.22
2023-03-07T17:08:14.065Z,4.19
2023-03-07T17:10:42.099Z,4.18
2023-03-07T17:13:14.688Z,4.13
2023-03-07T17:15:41.246Z,4.14
2023-03-07T17:18:07.727Z,4.11
2023-03-07T17:20:34.129Z,4.09
2023-03-07T17:23:00.550Z,4.04
2023-03-07T17:25:28.040Z,3.99
2023-03-07T17:28:06.933Z,3.99
2023-03-07T17:30:33.408Z,3.99
2023-03-07T17:33:00.930Z,3.98
2023-03-07T17:35:28.313Z,3.97
2023-03-07T17:37:54.748Z,3.93
2023-03-07T17:40:21.788Z,3.89
2023-03-07T17:42:50.488Z,3.89
2023-03-07T17:45:17.245Z,3.86
2023-03-07T17:47:43.660Z,3.83
2023-03-07T17:50:10.947Z,3.77
2023-03-07T17:52:37.412Z,3.77
2023-03-07T17:55:03.955Z,3.74
2023-03-07T17:57:30.418Z,3.67
2023-03-07T17:59:56.895Z,3.65
2023-03-07T18:02:23.455Z,3.63
2023-03-07T18:04:51.522Z,3.60
2023-03-07T18:07:19.684Z,3.57
2023-03-07T18:09:48.475Z,3.52
2023-03-07T18:12:17.958Z,3.53
2023-03-07T18:14:44.367Z,3.52
2023-03-07T18:17:11.116Z,3.51
2023-03-07T18:19:38.439Z,3.49
2023-03-07T18:22:04.955Z,3.48
2023-03-07T18:24:31.490Z,3.48
2023-03-07T18:27:03.284Z,3.46
2023-03-07T18:29:29.808Z,3.44
2023-03-07T18:31:56.552Z,3.44
2023-03-07T18:34:24.647Z,3.42
2023-03-07T18:36:53.000Z,3.37
2023-03-07T18:39:20.615Z,3.35
2023-03-07T18:41:48.481Z,3.34
2023-03-07T18:44:18.216Z,3.33
2023-03-07T18:46:44.710Z,3.28
2023-03-07T18:49:11.122Z,3.23
2023-03-07T18:51:39.408Z,3.20
2023-03-07T18:54:08.931Z,3.24
2023-03-07T18:56:35.425Z,3.18
2023-03-07T18:59:01.980Z,3.16
2023-03-07T19:01:35.725Z,3.16
2023-03-07T19:04:04.290Z,3.12
2023-03-07T19:06:33.762Z,3.13
2023-03-07T19:09:00.601Z,3.13
2023-03-07T19:11:27.060Z,3.14
2023-03-07T19:13:53.516Z,3.12
2023-03-07T19:16:26.525Z,3.14
2023-03-07T19:18:53.657Z,3.15
2023-03-07T19:21:25.083Z,3.14
2023-03-07T19:23:52.318Z,3.14
2023-03-07T19:26:20.381Z,3.13
2023-03-07T19:28:48.237Z,3.15
2023-03-07T19:31:20.091Z,3.15
2023-03-07T19:33:47.452Z,3.13
2023-03-07T19:36:22.337Z,3.15
2023-03-07T19:38:50.234Z,3.17
2023-03-07T19:41:18.909Z,3.19
2023-03-07T19:43:45.753Z,3.19
2023-03-07T19:46:13.491Z,3.18
2023-03-07T19:48:40.902Z,3.18
2023-03-07T19:51:18.457Z,3.18
2023-03-07T19:53:45.600Z,3.19
2023-03-07T19:56:20.636Z,3.18
2023-03-07T19:58:47.292Z,3.17
2023-03-07T20:01:16.459Z,3.19
2023-03-07T20:03:43.105Z,3.18
2023-03-07T20:06:14.770Z,3.22
2023-03-07T20:08:41.333Z,3.19
2023-03-07T20:11:16.310Z,3.18
2023-03-07T20:13:43.785Z,3.18
2023-03-07T20:16:10.664Z,3.18
2023-03-07T20:18:37.318Z,3.17
2023-03-07T20:21:09.529Z,3.16
2023-03-07T20:23:36.315Z,3.15
2023-03-07T20:26:17.534Z,3.14
2023-03-07T20:28:44.290Z,3.16
2023-03-07T20:31:11.419Z,3.16
2023-03-07T20:33:39.578Z,3.16
2023-03-07T20:36:08.414Z,3.15
2023-03-07T20:38:36.540Z,3.12
2023-03-07T20:41:05.173Z,3.11
2023-03-07T20:43:32.278Z,3.11
2023-03-07T20:46:03.475Z,3.12
2023-03-07T20:48:30.019Z,3.14
2023-03-07T20:50:57.164Z,3.16
2023-03-07T20:53:23.598Z,3.16
2023-03-07T20:55:50.036Z,3.17
2023-03-07T20:58:16.433Z,3.14
2023-03-07T21:00:42.871Z,3.13
2023-03-07T21:03:13.370Z,3.10
2023-03-07T21:05:39.899Z,3.10
2023-03-07T21:08:06.374Z,3.08
2023-03-07T21:10:32.795Z,3.07
2023-03-07T21:12:59.207Z,3.09
2023-03-07T21:15:26.064Z,3.05
2023-03-07T21:17:52.806Z,3.05
2023-03-07T21:20:19.277Z,3.04
2023-03-07T21:22:46.584Z,3.02
2023-03-07T21:25:13.022Z,3.03
2023-03-07T21:27:39.420Z,3.01
2023-03-07T21:30:06.539Z,3.00
2023-03-07T21:32:32.931Z,2.98
2023-03-07T21:34:59.332Z,2.98
2023-03-07T21:37:25.814Z,2.96
2023-03-07T21:39:52.559Z,2.95
2023-03-07T21:42:18.949Z,2.93
2023-03-07T21:44:45.400Z,2.92
2023-03-07T21:47:12.986Z,2.93
2023-03-07T21:49:39.462Z,2.89
2023-03-07T21:52:05.901Z,2.92
2023-03-07T21:54:32.371Z,2.92
2023-03-07T21:56:58.843Z,2.92
2023-03-07T21:59:28.106Z,2.90
2023-03-07T22:01:54.870Z,2.88
2023-03-07T22:04:21.359Z,2.87
2023-03-07T22:06:48.484Z,2.86
2023-03-07T22:09:14.930Z,2.86
2023-03-07T22:11:41.351Z,2.84
2023-03-07T22:14:07.753Z,2.83
2023-03-07T22:16:34.276Z,2.82
2023-03-07T22:19:00.694Z,2.81
2023-03-07T22:21:27.675Z,2.79
2023-03-07T22:24:00.622Z,2.74
2023-03-07T22:26:28.197Z,2.70
2023-03-07T22:28:54.666Z,2.69
2023-03-07T22:31:21.143Z,2.64
2023-03-07T22:33:47.577Z,2.64
2023-03-07T22:36:14.351Z,2.66
2023-03-07T22:38:42.625Z,2.65
2023-03-07T22:41:14.594Z,2.62
2023-03-07T22:43:41.415Z,2.58
2023-03-07T22:46:08.616Z,2.58
2023-03-07T22:48:35.518Z,2.56
2023-03-07T22:51:02.348Z,2.53
2023-03-07T22:53:30.926Z,2.53
2023-03-07T22:56:01.465Z,2.51
2023-03-07T22:58:28.675Z,2.49
2023-03-07T23:00:55.672Z,2.45
2023-03-07T23:03:23.287Z,2.40
2023-03-07T23:05:49.909Z,2.37
2023-03-07T23:08:16.503Z,2.34
2023-03-07T23:10:42.904Z,2.31
2023-03-07T23:13:09.316Z,2.29
2023-03-07T23:15:39.488Z,2.28
2023-03-07T23:18:05.981Z,2.24
2023-03-07T23:20:32.426Z,2.23
2023-03-07T23:22:58.830Z,2.19
2023-03-07T23:25:25.243Z,2.17
2023-03-07T23:27:51.635Z,2.17
2023-03-07T23:30:18.093Z,2.15
2023-03-07T23:32:44.669Z,2.15
2023-03-07T23:35:11.578Z,2.14
2023-03-07T23:37:38.054Z,2.11
2023-03-07T23:40:05.092Z,2.08
2023-03-07T23:42:31.762Z,2.07
2023-03-07T23:44:58.172Z,2.08
2023-03-07T23:47:24.624Z,2.07
2023-03-07T23:49:51.020Z,2.07
2023-03-07T23:52:17.870Z,2.08
2023-03-07T23:54:45.200Z,2.07
2023-03-07T23:57:11.621Z,2.06
2023-03-07T23:59:38.010Z,2.03
